sensor_id;sensor_type;location;lat;lon;timestamp;P1;durP1;ratioP1;P2;durP2;ratioP2
44704;SDS011;30431;48.520;9.046;2023-03-24T00:01:17;7.07;;;4.63;;
44704;SDS011;30431;48.520;9.046;2023-03-24T00:03:47;9.32;;;4.10;;
44704;SDS011;30431;48.520;9.046;2023-03-24T00:06:14;6.68;;;4.35;;
44704;SDS011;30431;48.520;9.046;2023-03-24T00:08:44;8.98;;;4.57;;
44704;SDS011;30431;48.520;9.046;2023-03-24T00:11:14;6.95;;;5.00;;
44704;SDS011;30431;48.520;9.046;2023-03-24T00:13:44;7.65;;;4.60;;
44704;SDS011;30431;48.520;9.046;2023-03-24T00:16:13;8.43;;;4.32;;
44704;SDS011;30431;48.520;9.046;2023-03-24T00:18:42;10.68;;;4.95;;
44704;SDS011;30431;48.520;9.046;2023-03-24T00:21:15;9.10;;;4.70;;
44704;SDS011;30431;48.520;9.046;2023-03-24T00:23:43;8.68;;;4.80;;
44704;SDS011;30431;48.520;9.046;2023-03-24T00:26:15;7.25;;;4.47;;
44704;SDS011;30431;48.520;9.046;2023-03-24T00:28:43;7.47;;;4.40;;
44704;SDS011;30431;48.520;9.046;2023-03-24T00:31:13;6.78;;;4.60;;
44704;SDS011;30431;48.520;9.046;2023-03-24T00:33:43;7.03;;;4.50;;
44704;SDS011;30431;48.520;9.046;2023-03-24T00:36:18;6.75;;;4.60;;
44704;SDS011;30431;48.520;9.046;2023-03-24T00:38:46;5.55;;;4.32;;
44704;SDS011;30431;48.520;9.046;2023-03-24T00:41:14;5.80;;;4.03;;
44704;SDS011;30431;48.520;9.046;2023-03-24T00:43:46;6.28;;;3.90;;
44704;SDS011;30431;48.520;9.046;2023-03-24T00:46:15;7.35;;;4.00;;
44704;SDS011;30431;48.520;9.046;2023-03-24T00:48:58;7.60;;;3.92;;
44704;SDS011;30431;48.520;9.046;2023-03-24T00:51:33;8.07;;;4.00;;
44704;SDS011;30431;48.520;9.046;2023-03-24T00:54:03;6.30;;;4.05;;
44704;SDS011;30431;48.520;9.046;2023-03-24T00:56:32;6.35;;;3.83;;
44704;SDS011;30431;48.520;9.046;2023-03-24T00:59:01;6.82;;;4.47;;
44704;SDS011;30431;48.520;9.046;2023-03-24T01:01:33;7.28;;;3.92;;
44704;SDS011;30431;48.520;9.046;2023-03-24T01:04:06;8.13;;;3.90;;
44704;SDS011;30431;48.520;9.046;2023-03-24T01:06:36;6.82;;;3.38;;
44704;SDS011;30431;48.520;9.046;2023-03-24T01:09:04;5.80;;;3.78;;
44704;SDS011;30431;48.520;9.046;2023-03-24T01:11:33;5.25;;;3.78;;
44704;SDS011;30431;48.520;9.046;2023-03-24T01:14:05;7.05;;;3.90;;
44704;SDS011;30431;48.520;9.046;2023-03-24T01:16:34;5.90;;;3.45;;
44704;SDS011;30431;48.520;9.046;2023-03-24T01:19:01;5.93;;;3.65;;
44704;SDS011;30431;48.520;9.046;2023-03-24T01:21:29;6.07;;;3.40;;
44704;SDS011;30431;48.520;9.046;2023-03-24T01:23:57;5.63;;;3.83;;
44704;SDS011;30431;48.520;9.046;2023-03-24T01:28:52;7.07;;;3.67;;
44704;SDS011;30431;48.520;9.046;2023-03-24T01:33:46;5.53;;;3.30;;
44704;SDS011;30431;48.520;9.046;2023-03-24T01:36:14;5.85;;;3.88;;
44704;SDS011;30431;48.520;9.046;2023-03-24T01:38:41;7.72;;;4.28;;
44704;SDS011;30431;48.520;9.046;2023-03-24T01:41:09;7.10;;;4.05;;
44704;SDS011;30431;48.520;9.046;2023-03-24T01:54:22;7.43;;;3.90;;
44704;SDS011;30431;48.520;9.046;2023-03-24T01:57:06;8.70;;;5.18;;
44704;SDS011;30431;48.520;9.046;2023-03-24T01:59:50;13.15;;;7.63;;
44704;SDS011;30431;48.520;9.046;2023-03-24T02:02:42;12.02;;;7.30;;
44704;SDS011;30431;48.520;9.046;2023-03-24T02:05:20;13.02;;;7.70;;
44704;SDS011;30431;48.520;9.046;2023-03-24T02:10:26;10.85;;;5.50;;
44704;SDS011;30431;48.520;9.046;2023-03-24T02:12:58;9.32;;;5.68;;
44704;SDS011;30431;48.520;9.046;2023-03-24T02:15:28;7.25;;;5.10;;
44704;SDS011;30431;48.520;9.046;2023-03-24T02:56:53;6.50;;;3.90;;
44704;SDS011;30431;48.520;9.046;2023-03-24T03:00:13;5.10;;;3.50;;
44704;SDS011;30431;48.520;9.046;2023-03-24T03:03:29;6.53;;;3.75;;
44704;SDS011;30431;48.520;9.046;2023-03-24T03:06:19;8.65;;;3.90;;
44704;SDS011;30431;48.520;9.046;2023-03-24T03:09:03;5.35;;;3.67;;
44704;SDS011;30431;48.520;9.046;2023-03-24T03:11:35;8.35;;;4.57;;
44704;SDS011;30431;48.520;9.046;2023-03-24T03:17:21;7.10;;;3.80;;
44704;SDS011;30431;48.520;9.046;2023-03-24T03:19:57;7.70;;;4.00;;
44704;SDS011;30431;48.520;9.046;2023-03-24T03:22:38;5.18;;;3.53;;
44704;SDS011;30431;48.520;9.046;2023-03-24T03:25:23;5.13;;;3.50;;
44704;SDS011;30431;48.520;9.046;2023-03-24T03:27:54;5.15;;;3.40;;
44704;SDS011;30431;48.520;9.046;2023-03-24T03:30:30;6.05;;;3.72;;
44704;SDS011;30431;48.520;9.046;2023-03-24T03:33:19;6.18;;;3.63;;
44704;SDS011;30431;48.520;9.046;2023-03-24T03:42:23;9.00;;;4.25;;
44704;SDS011;30431;48.520;9.046;2023-03-24T03:44:51;13.10;;;5.82;;
44704;SDS011;30431;48.520;9.046;2023-03-24T03:50:12;10.55;;;6.40;;
44704;SDS011;30431;48.520;9.046;2023-03-24T03:52:39;14.55;;;6.35;;
44704;SDS011;30431;48.520;9.046;2023-03-24T03:55:07;11.02;;;6.40;;
44704;SDS011;30431;48.520;9.046;2023-03-24T03:58:02;8.70;;;4.70;;
44704;SDS011;30431;48.520;9.046;2023-03-24T04:00:42;8.50;;;5.22;;
44704;SDS011;30431;48.520;9.046;2023-03-24T04:06:12;8.45;;;4.40;;
44704;SDS011;30431;48.520;9.046;2023-03-24T04:23:26;5.57;;;3.78;;
44704;SDS011;30431;48.520;9.046;2023-03-24T04:31:59;9.07;;;4.35;;
44704;SDS011;30431;48.520;9.046;2023-03-24T04:34:28;11.35;;;4.80;;
44704;SDS011;30431;48.520;9.046;2023-03-24T04:37:27;9.65;;;4.47;;
44704;SDS011;30431;48.520;9.046;2023-03-24T04:40:11;8.45;;;4.70;;
44704;SDS011;30431;48.520;9.046;2023-03-24T04:42:47;7.78;;;4.20;;
44704;SDS011;30431;48.520;9.046;2023-03-24T04:45:21;9.18;;;4.35;;
44704;SDS011;30431;48.520;9.046;2023-03-24T04:48:16;9.23;;;4.68;;
44704;SDS011;30431;48.520;9.046;2023-03-24T04:53:26;11.20;;;4.43;;
44704;SDS011;30431;48.520;9.046;2023-03-24T04:55:57;6.68;;;4.20;;
44704;SDS011;30431;48.520;9.046;2023-03-24T05:01:18;6.68;;;3.25;;
44704;SDS011;30431;48.520;9.046;2023-03-24T05:04:08;5.97;;;3.45;;
44704;SDS011;30431;48.520;9.046;2023-03-24T05:06:36;4.53;;;2.70;;
44704;SDS011;30431;48.520;9.046;2023-03-24T05:09:03;4.63;;;2.85;;
44704;SDS011;30431;48.520;9.046;2023-03-24T05:11:31;5.97;;;2.92;;
44704;SDS011;30431;48.520;9.046;2023-03-24T05:14:07;6.70;;;2.67;;
44704;SDS011;30431;48.520;9.046;2023-03-24T05:16:36;4.72;;;2.65;;
44704;SDS011;30431;48.520;9.046;2023-03-24T05:19:04;4.70;;;2.83;;
44704;SDS011;30431;48.520;9.046;2023-03-24T05:21:32;3.85;;;2.60;;
44704;SDS011;30431;48.520;9.046;2023-03-24T05:24:04;4.47;;;2.70;;
44704;SDS011;30431;48.520;9.046;2023-03-24T05:26:33;5.43;;;2.63;;
44704;SDS011;30431;48.520;9.046;2023-03-24T05:29:09;6.10;;;3.53;;
44704;SDS011;30431;48.520;9.046;2023-03-24T05:31:38;5.90;;;3.25;;
44704;SDS011;30431;48.520;9.046;2023-03-24T05:34:17;5.00;;;2.90;;
44704;SDS011;30431;48.520;9.046;2023-03-24T05:36:53;6.68;;;2.92;;
44704;SDS011;30431;48.520;9.046;2023-03-24T05:39:21;6.03;;;2.83;;
44704;SDS011;30431;48.520;9.046;2023-03-24T05:44:25;6.50;;;2.88;;
44704;SDS011;30431;48.520;9.046;2023-03-24T05:49:42;6.68;;;2.90;;
44704;SDS011;30431;48.520;9.046;2023-03-24T05:52:09;4.50;;;2.78;;
44704;SDS011;30431;48.520;9.046;2023-03-24T05:54:39;4.13;;;2.75;;
44704;SDS011;30431;48.520;9.046;2023-03-24T05:57:15;5.38;;;2.78;;
44704;SDS011;30431;48.520;9.046;2023-03-24T05:59:59;4.88;;;2.53;;
44704;SDS011;30431;48.520;9.046;2023-03-24T06:02:50;6.22;;;3.20;;
44704;SDS011;30431;48.520;9.046;2023-03-24T06:05:46;8.55;;;3.00;;
44704;SDS011;30431;48.520;9.046;2023-03-24T06:08:14;4.88;;;3.30;;
44704;SDS011;30431;48.520;9.046;2023-03-24T06:10:42;5.78;;;2.88;;
44704;SDS011;30431;48.520;9.046;2023-03-24T06:13:14;4.97;;;3.10;;
44704;SDS011;30431;48.520;9.046;2023-03-24T06:15:44;7.40;;;3.20;;
44704;SDS011;30431;48.520;9.046;2023-03-24T06:18:32;6.80;;;3.38;;
44704;SDS011;30431;48.520;9.046;2023-03-24T06:21:06;6.68;;;4.15;;
44704;SDS011;30431;48.520;9.046;2023-03-24T06:23:34;4.70;;;3.20;;
44704;SDS011;30431;48.520;9.046;2023-03-24T06:26:08;5.28;;;3.15;;
44704;SDS011;30431;48.520;9.046;2023-03-24T06:29:03;6.00;;;3.28;;
44704;SDS011;30431;48.520;9.046;2023-03-24T06:31:34;5.90;;;3.35;;
44704;SDS011;30431;48.520;9.046;2023-03-24T06:34:05;5.22;;;3.30;;
44704;SDS011;30431;48.520;9.046;2023-03-24T06:36:34;7.15;;;3.83;;
44704;SDS011;30431;48.520;9.046;2023-03-24T06:39:04;5.78;;;3.80;;
44704;SDS011;30431;48.520;9.046;2023-03-24T06:41:33;4.68;;;3.20;;
44704;SDS011;30431;48.520;9.046;2023-03-24T06:44:03;5.10;;;3.30;;
44704;SDS011;30431;48.520;9.046;2023-03-24T06:46:31;5.15;;;3.30;;
44704;SDS011;30431;48.520;9.046;2023-03-24T06:49:01;4.43;;;3.05;;
44704;SDS011;30431;48.520;9.046;2023-03-24T06:51:29;4.60;;;3.00;;
44704;SDS011;30431;48.520;9.046;2023-03-24T06:56:25;7.07;;;3.00;;
44704;SDS011;30431;48.520;9.046;2023-03-24T06:58:59;4.50;;;2.60;;
44704;SDS011;30431;48.520;9.046;2023-03-24T07:01:31;2.92;;;2.50;;
44704;SDS011;30431;48.520;9.046;2023-03-24T07:04:15;4.60;;;3.17;;
44704;SDS011;30431;48.520;9.046;2023-03-24T07:06:53;3.97;;;2.60;;
44704;SDS011;30431;48.520;9.046;2023-03-24T07:09:42;5.18;;;3.63;;
44704;SDS011;30431;48.520;9.046;2023-03-24T07:12:11;5.32;;;3.15;;
44704;SDS011;30431;48.520;9.046;2023-03-24T07:14:41;5.63;;;3.90;;
44704;SDS011;30431;48.520;9.046;2023-03-24T07:17:11;7.82;;;3.95;;
44704;SDS011;30431;48.520;9.046;2023-03-24T07:19:45;6.40;;;4.05;;
44704;SDS011;30431;48.520;9.046;2023-03-24T07:22:45;8.98;;;6.55;;
44704;SDS011;30431;48.520;9.046;2023-03-24T07:25:42;5.47;;;3.90;;
44704;SDS011;30431;48.520;9.046;2023-03-24T07:28:28;8.30;;;4.30;;
44704;SDS011;30431;48.520;9.046;2023-03-24T07:33:26;6.43;;;4.22;;
44704;SDS011;30431;48.520;9.046;2023-03-24T07:35:56;7.43;;;4.05;;
44704;SDS011;30431;48.520;9.046;2023-03-24T07:38:24;6.57;;;4.20;;
44704;SDS011;30431;48.520;9.046;2023-03-24T07:40:57;6.38;;;3.70;;
44704;SDS011;30431;48.520;9.046;2023-03-24T07:43:25;5.95;;;3.67;;
44704;SDS011;30431;48.520;9.046;2023-03-24T07:45:54;8.32;;;4.22;;
44704;SDS011;30431;48.520;9.046;2023-03-24T07:48:26;7.72;;;4.40;;
44704;SDS011;30431;48.520;9.046;2023-03-24T07:50:58;8.48;;;5.20;;
44704;SDS011;30431;48.520;9.046;2023-03-24T07:53:43;7.65;;;5.40;;
44704;SDS011;30431;48.520;9.046;2023-03-24T07:56:18;7.18;;;4.43;;
44704;SDS011;30431;48.520;9.046;2023-03-24T07:58:51;7.97;;;5.18;;
44704;SDS011;30431;48.520;9.046;2023-03-24T08:01:28;11.38;;;5.93;;
44704;SDS011;30431;48.520;9.046;2023-03-24T08:03:58;11.65;;;5.78;;
44704;SDS011;30431;48.520;9.046;2023-03-24T08:06:55;11.65;;;6.40;;
44704;SDS011;30431;48.520;9.046;2023-03-24T08:09:23;7.85;;;4.63;;
44704;SDS011;30431;48.520;9.046;2023-03-24T08:11:52;8.70;;;4.85;;
44704;SDS011;30431;48.520;9.046;2023-03-24T08:14:25;9.75;;;5.93;;
44704;SDS011;30431;48.520;9.046;2023-03-24T08:16:52;8.13;;;5.28;;
44704;SDS011;30431;48.520;9.046;2023-03-24T08:19:20;7.32;;;4.75;;
44704;SDS011;30431;48.520;9.046;2023-03-24T08:21:49;7.53;;;5.70;;
44704;SDS011;30431;48.520;9.046;2023-03-24T08:24:16;7.63;;;5.15;;
44704;SDS011;30431;48.520;9.046;2023-03-24T08:26:47;7.68;;;4.22;;
44704;SDS011;30431;48.520;9.046;2023-03-24T08:29:21;6.13;;;4.07;;
44704;SDS011;30431;48.520;9.046;2023-03-24T08:31:48;5.15;;;3.22;;
44704;SDS011;30431;48.520;9.046;2023-03-24T08:34:15;6.35;;;3.90;;
44704;SDS011;30431;48.520;9.046;2023-03-24T08:36:42;5.88;;;4.18;;
44704;SDS011;30431;48.520;9.046;2023-03-24T08:39:09;10.43;;;5.20;;
44704;SDS011;30431;48.520;9.046;2023-03-24T08:41:38;8.93;;;3.85;;
44704;SDS011;30431;48.520;9.046;2023-03-24T08:44:06;7.40;;;4.72;;
44704;SDS011;30431;48.520;9.046;2023-03-24T08:46:37;9.43;;;5.30;;
44704;SDS011;30431;48.520;9.046;2023-03-24T08:49:07;8.85;;;5.22;;
44704;SDS011;30431;48.520;9.046;2023-03-24T08:51:34;8.50;;;4.30;;
44704;SDS011;30431;48.520;9.046;2023-03-24T08:54:01;6.78;;;4.00;;
44704;SDS011;30431;48.520;9.046;2023-03-24T08:56:31;5.63;;;3.60;;
44704;SDS011;30431;48.520;9.046;2023-03-24T08:59:00;8.23;;;3.30;;
44704;SDS011;30431;48.520;9.046;2023-03-24T09:01:27;6.22;;;3.20;;
44704;SDS011;30431;48.520;9.046;2023-03-24T09:03:55;7.57;;;3.20;;
44704;SDS011;30431;48.520;9.046;2023-03-24T09:06:25;5.50;;;3.15;;
44704;SDS011;30431;48.520;9.046;2023-03-24T09:08:53;4.53;;;3.25;;
44704;SDS011;30431;48.520;9.046;2023-03-24T09:11:20;6.90;;;3.78;;
44704;SDS011;30431;48.520;9.046;2023-03-24T09:13:50;5.55;;;3.28;;
44704;SDS011;30431;48.520;9.046;2023-03-24T09:16:17;7.43;;;3.28;;
44704;SDS011;30431;48.520;9.046;2023-03-24T09:18:51;4.10;;;3.20;;
44704;SDS011;30431;48.520;9.046;2023-03-24T09:21:20;5.25;;;3.20;;
44704;SDS011;30431;48.520;9.046;2023-03-24T09:23:47;6.00;;;3.13;;
44704;SDS011;30431;48.520;9.046;2023-03-24T09:26:14;5.55;;;3.00;;
44704;SDS011;30431;48.520;9.046;2023-03-24T09:28:41;3.60;;;2.50;;
44704;SDS011;30431;48.520;9.046;2023-03-24T09:31:09;4.18;;;2.15;;
44704;SDS011;30431;48.520;9.046;2023-03-24T09:33:36;4.93;;;3.05;;
44704;SDS011;30431;48.520;9.046;2023-03-24T09:38:31;2.78;;;2.20;;
44704;SDS011;30431;48.520;9.046;2023-03-24T09:41:02;3.28;;;2.10;;
44704;SDS011;30431;48.520;9.046;2023-03-24T09:43:35;3.97;;;2.30;;
44704;SDS011;30431;48.520;9.046;2023-03-24T09:46:10;2.08;;;1.85;;
44704;SDS011;30431;48.520;9.046;2023-03-24T09:48:42;6.65;;;2.72;;
44704;SDS011;30431;48.520;9.046;2023-03-24T09:51:14;8.27;;;5.93;;
44704;SDS011;30431;48.520;9.046;2023-03-24T09:56:43;5.50;;;2.30;;
44704;SDS011;30431;48.520;9.046;2023-03-24T10:02:09;3.03;;;2.22;;
44704;SDS011;30431;48.520;9.046;2023-03-24T10:04:37;2.75;;;1.75;;
44704;SDS011;30431;48.520;9.046;2023-03-24T10:09:35;1.55;;;1.45;;
44704;SDS011;30431;48.520;9.046;2023-03-24T10:32:00;1.63;;;1.50;;
44704;SDS011;30431;48.520;9.046;2023-03-24T10:34:44;3.60;;;1.73;;
44704;SDS011;30431;48.520;9.046;2023-03-24T10:37:38;1.60;;;1.50;;
44704;SDS011;30431;48.520;9.046;2023-03-24T10:40:15;3.20;;;1.55;;
44704;SDS011;30431;48.520;9.046;2023-03-24T10:42:49;4.47;;;2.00;;
44704;SDS011;30431;48.520;9.046;2023-03-24T10:45:35;3.40;;;1.55;;
44704;SDS011;30431;48.520;9.046;2023-03-24T10:48:06;2.78;;;1.73;;
44704;SDS011;30431;48.520;9.046;2023-03-24T10:50:40;4.18;;;1.98;;
44704;SDS011;30431;48.520;9.046;2023-03-24T10:53:17;4.85;;;1.90;;
44704;SDS011;30431;48.520;9.046;2023-03-24T10:55:48;3.47;;;2.10;;
44704;SDS011;30431;48.520;9.046;2023-03-24T10:58:18;2.00;;;1.80;;
44704;SDS011;30431;48.520;9.046;2023-03-24T11:01:01;1.60;;;1.50;;
44704;SDS011;30431;48.520;9.046;2023-03-24T11:03:35;3.20;;;1.45;;
44704;SDS011;30431;48.520;9.046;2023-03-24T11:06:05;2.28;;;1.63;;
44704;SDS011;30431;48.520;9.046;2023-03-24T11:08:37;4.13;;;2.10;;
44704;SDS011;30431;48.520;9.046;2023-03-24T11:11:12;2.35;;;1.80;;
44704;SDS011;30431;48.520;9.046;2023-03-24T11:14:00;3.08;;;2.42;;
44704;SDS011;30431;48.520;9.046;2023-03-24T11:16:35;4.07;;;1.80;;
44704;SDS011;30431;48.520;9.046;2023-03-24T11:19:28;5.22;;;1.70;;
44704;SDS011;30431;48.520;9.046;2023-03-24T11:21:58;1.50;;;1.40;;
44704;SDS011;30431;48.520;9.046;2023-03-24T11:24:37;3.58;;;1.45;;
44704;SDS011;30431;48.520;9.046;2023-03-24T11:27:08;2.58;;;1.50;;
44704;SDS011;30431;48.520;9.046;2023-03-24T11:29:48;2.45;;;1.40;;
44704;SDS011;30431;48.520;9.046;2023-03-24T11:32:22;1.33;;;1.23;;
44704;SDS011;30431;48.520;9.046;2023-03-24T11:35:03;2.47;;;1.50;;
44704;SDS011;30431;48.520;9.046;2023-03-24T11:37:34;1.35;;;1.20;;
44704;SDS011;30431;48.520;9.046;2023-03-24T11:42:43;1.75;;;1.65;;
44704;SDS011;30431;48.520;9.046;2023-03-24T11:45:27;1.65;;;1.35;;
44704;SDS011;30431;48.520;9.046;2023-03-24T11:48:10;2.53;;;2.00;;
44704;SDS011;30431;48.520;9.046;2023-03-24T11:50:52;3.92;;;1.60;;
44704;SDS011;30431;48.520;9.046;2023-03-24T11:53:24;1.80;;;1.20;;
44704;SDS011;30431;48.520;9.046;2023-03-24T11:58:46;1.83;;;1.67;;
44704;SDS011;30431;48.520;9.046;2023-03-24T12:20:44;2.35;;;1.38;;
44704;SDS011;30431;48.520;9.046;2023-03-24T12:26:02;1.30;;;1.20;;
44704;SDS011;30431;48.520;9.046;2023-03-24T12:34:27;0.93;;;0.93;;
44704;SDS011;30431;48.520;9.046;2023-03-24T12:42:47;1.90;;;1.10;;
44704;SDS011;30431;48.520;9.046;2023-03-24T12:45:33;0.80;;;0.80;;
44704;SDS011;30431;48.520;9.046;2023-03-24T12:51:13;1.88;;;1.30;;
44704;SDS011;30431;48.520;9.046;2023-03-24T12:54:00;1.02;;;0.93;;
44704;SDS011;30431;48.520;9.046;2023-03-24T12:56:57;1.08;;;1.00;;
44704;SDS011;30431;48.520;9.046;2023-03-24T13:02:58;4.90;;;1.13;;
44704;SDS011;30431;48.520;9.046;2023-03-24T13:05:31;1.55;;;1.02;;
44704;SDS011;30431;48.520;9.046;2023-03-24T13:08:01;3.45;;;1.05;;
44704;SDS011;30431;48.520;9.046;2023-03-24T13:10:35;4.60;;;2.03;;
44704;SDS011;30431;48.520;9.046;2023-03-24T13:13:10;5.75;;;2.33;;
44704;SDS011;30431;48.520;9.046;2023-03-24T13:15:53;6.43;;;2.17;;
